createdAt,value
2022-10-27T00:01:06.305Z,92823.53
2022-10-27T00:03:52.262Z,92824.63
2022-10-27T00:06:38.089Z,92823.16
2022-10-27T00:09:24.004Z,92830.69
2022-10-27T00:12:09.953Z,92831.72
2022-10-27T00:14:55.885Z,92825.94
2022-10-27T00:17:41.799Z,92837.66
2022-10-27T00:20:27.752Z,92826.59
2022-10-27T00:23:13.522Z,92830.94
2022-10-27T00:25:59.353Z,92832.94
2022-10-27T00:28:45.186Z,92838.13
2022-10-27T00:31:31.185Z,92827.78
2022-10-27T00:34:17.036Z,92833.59
2022-10-27T00:37:02.762Z,92837.38
2022-10-27T00:39:48.623Z,92834.22
2022-10-27T00:42:34.659Z,92839.81
2022-10-27T00:45:20.446Z,92838.09
2022-10-27T00:48:06.396Z,92840.81
2022-10-27T00:50:52.253Z,92839.19
2022-10-27T00:53:38.104Z,92840.88
2022-10-27T00:56:23.922Z,92844.81
2022-10-27T00:59:09.734Z,92843.19
2022-10-27T01:01:55.668Z,92843.00
2022-10-27T01:04:41.854Z,92841.81
2022-10-27T01:07:27.596Z,92844.53
2022-10-27T01:10:13.634Z,92846.16
2022-10-27T01:12:59.453Z,92851.34
2022-10-27T01:15:45.347Z,92859.03
2022-10-27T01:18:31.340Z,92851.03
2022-10-27T01:21:17.169Z,92855.91
2022-10-27T01:24:02.913Z,92854.91
2022-10-27T01:26:48.835Z,92850.88
2022-10-27T01:29:34.731Z,92851.50
2022-10-27T01:32:20.820Z,92852.06
2022-10-27T01:35:06.604Z,92843.59
2022-10-27T01:37:52.472Z,92842.19
2022-10-27T01:40:38.390Z,92846.63
2022-10-27T01:43:24.225Z,92845.19
2022-10-27T01:46:09.961Z,92847.97
2022-10-27T01:48:55.692Z,92843.59
2022-10-27T01:51:41.465Z,92851.50
2022-10-27T01:54:29.388Z,92840.63
2022-10-27T01:57:15.075Z,92839.38
2022-10-27T02:00:01.105Z,92843.09
2022-10-27T02:02:46.942Z,92849.09
2022-10-27T02:05:32.672Z,92841.31
2022-10-27T02:08:18.614Z,92843.44
2022-10-27T02:11:04.422Z,92858.31
2022-10-27T02:13:50.387Z,92866.09
2022-10-27T02:16:36.389Z,92866.50
2022-10-27T02:19:22.278Z,92841.97
2022-10-27T02:22:08.221Z,92852.50
2022-10-27T02:24:54.073Z,92858.09
2022-10-27T02:27:39.894Z,92865.84
2022-10-27T02:30:25.720Z,92851.03
2022-10-27T02:33:11.349Z,92847.66
2022-10-27T02:35:57.189Z,92839.22
2022-10-27T02:38:43.209Z,92839.97
2022-10-27T02:41:29.208Z,92838.69
2022-10-27T02:44:15.103Z,92835.09
2022-10-27T02:47:04.249Z,92839.53
2022-10-27T02:49:51.977Z,92854.75
2022-10-27T02:52:37.778Z,92850.25
2022-10-27T02:55:23.720Z,92852.63
2022-10-27T02:58:09.569Z,92859.31
2022-10-27T03:00:55.773Z,92849.78
2022-10-27T03:03:41.775Z,92857.34
2022-10-27T03:06:27.578Z,92861.66
2022-10-27T03:09:13.458Z,92867.72
2022-10-27T03:11:59.433Z,92869.34
2022-10-27T03:14:45.292Z,92868.22
2022-10-27T03:17:31.310Z,92869.34
2022-10-27T03:20:17.050Z,92871.22
2022-10-27T03:23:02.881Z,92860.94
2022-10-27T03:25:48.907Z,92858.56
2022-10-27T03:28:35.164Z,92854.34
2022-10-27T03:31:20.960Z,92855.38
2022-10-27T03:34:06.753Z,92851.63
2022-10-27T03:36:52.745Z,92856.91
2022-10-27T03:39:38.570Z,92857.31
2022-10-27T03:42:24.351Z,92857.59
2022-10-27T03:45:10.316Z,92856.56
2022-10-27T03:47:56.219Z,92854.75
2022-10-27T03:50:41.981Z,92866.78
2022-10-27T03:53:27.944Z,92858.88
2022-10-27T03:56:13.725Z,92859.47
2022-10-27T03:58:59.482Z,92854.69
2022-10-27T04:01:47.496Z,92857.50
2022-10-27T04:04:33.661Z,92865.25
2022-10-27T04:07:19.609Z,92869.22
2022-10-27T04:10:05.403Z,92863.69
2022-10-27T04:13:01.412Z,92868.47
2022-10-27T04:16:03.803Z,92872.31
2022-10-27T04:18:49.840Z,92877.06
2022-10-27T04:21:35.645Z,92880.63
2022-10-27T04:24:21.534Z,92873.88
2022-10-27T04:27:07.391Z,92875.50
2022-10-27T04:29:53.329Z,92880.69
2022-10-27T04:32:39.001Z,92877.28
2022-10-27T04:35:24.881Z,92873.75
2022-10-27T04:38:10.668Z,92876.72
2022-10-27T04:40:56.671Z,92872.53
2022-10-27T04:43:42.512Z,92876.84
2022-10-27T04:46:28.436Z,92881.72
2022-10-27T04:49:14.271Z,92876.75
2022-10-27T04:52:00.134Z,92879.84
2022-10-27T04:54:46.292Z,92884.41
2022-10-27T04:57:32.165Z,92896.66
2022-10-27T05:00:18.022Z,92900.81
2022-10-27T05:03:03.949Z,92897.44
2022-10-27T05:05:49.724Z,92896.22
2022-10-27T05:08:35.545Z,92893.84
2022-10-27T05:11:21.377Z,92891.75
2022-10-27T05:14:07.218Z,92881.03
2022-10-27T05:16:53.086Z,92884.34
2022-10-27T05:19:39.037Z,92883.75
2022-10-27T05:22:24.785Z,92891.22
2022-10-27T05:25:10.573Z,92890.22
2022-10-27T05:27:56.287Z,92885.38
2022-10-27T05:30:42.164Z,92888.09
2022-10-27T05:33:28.039Z,92890.88
2022-10-27T05:36:13.835Z,92890.97
2022-10-27T05:38:59.617Z,92883.56
2022-10-27T05:41:45.415Z,92893.09
2022-10-27T05:44:31.149Z,92895.41
2022-10-27T05:47:17.166Z,92888.63
2022-10-27T05:50:02.963Z,92886.25
2022-10-27T05:52:49.035Z,92886.28
2022-10-27T05:55:35.353Z,92889.94
2022-10-27T05:58:21.246Z,92901.34
2022-10-27T06:01:07.206Z,92904.38
2022-10-27T06:03:53.177Z,92903.13
2022-10-27T06:06:39.085Z,92903.28
2022-10-27T06:09:24.891Z,92902.41
2022-10-27T06:12:10.568Z,92901.06
2022-10-27T06:14:56.571Z,92903.25
2022-10-27T06:17:42.429Z,92904.06
2022-10-27T06:20:28.337Z,92897.13
2022-10-27T06:23:14.604Z,92898.75
2022-10-27T06:26:01.505Z,92902.06
2022-10-27T06:28:47.560Z,92904.88
2022-10-27T06:31:33.398Z,92892.97
2022-10-27T06:34:19.352Z,92900.00
2022-10-27T06:37:05.248Z,92893.06
2022-10-27T06:39:51.201Z,92910.53
2022-10-27T06:42:48.730Z,92915.97
2022-10-27T06:45:41.684Z,92914.53
2022-10-27T06:48:27.654Z,92926.91
2022-10-27T06:51:13.366Z,92925.72
2022-10-27T06:53:59.243Z,92926.53
2022-10-27T06:56:45.035Z,92941.00
2022-10-27T06:59:30.989Z,92930.16
2022-10-27T07:02:17.048Z,92932.84
2022-10-27T07:05:03.088Z,92944.97
2022-10-27T07:07:49.252Z,92954.69
2022-10-27T07:10:35.589Z,92962.03
2022-10-27T07:13:21.315Z,92954.41
2022-10-27T07:16:07.172Z,92962.06
2022-10-27T07:18:53.033Z,92960.66
2022-10-27T07:21:38.752Z,92953.88
2022-10-27T07:24:24.777Z,92954.28
2022-10-27T07:27:11.192Z,92951.16
2022-10-27T07:29:57.414Z,92959.63
2022-10-27T07:32:43.396Z,92961.06
2022-10-27T07:35:29.298Z,92962.94
2022-10-27T07:38:15.239Z,92959.13
2022-10-27T07:41:01.237Z,92954.56
2022-10-27T07:43:47.033Z,92969.03
2022-10-27T07:46:32.967Z,92965.22
2022-10-27T07:49:18.785Z,92968.09
2022-10-27T07:52:04.697Z,92959.16
2022-10-27T07:54:50.627Z,92963.41
2022-10-27T07:57:36.540Z,92961.56
2022-10-27T08:00:22.495Z,92967.66
2022-10-27T08:03:08.211Z,92967.63
2022-10-27T08:05:54.206Z,92969.16
2022-10-27T08:08:40.151Z,92968.41
2022-10-27T08:11:25.961Z,92953.56
2022-10-27T08:14:11.913Z,92967.63
2022-10-27T08:17:01.303Z,92964.56
2022-10-27T08:19:50.097Z,92962.59
2022-10-27T08:22:35.925Z,92974.31
2022-10-27T08:25:21.732Z,92967.47
2022-10-27T08:28:07.573Z,92968.78
2022-10-27T08:30:53.750Z,92966.88
2022-10-27T08:33:39.566Z,92972.97
2022-10-27T08:36:25.390Z,92986.16
2022-10-27T08:39:11.265Z,92993.44
2022-10-27T08:41:57.079Z,92993.88
2022-10-27T08:44:42.966Z,92988.25
2022-10-27T08:47:28.759Z,92993.63
2022-10-27T08:50:14.696Z,92994.25
2022-10-27T08:53:03.927Z,92996.19
2022-10-27T08:55:51.331Z,93005.91
2022-10-27T08:58:37.319Z,93004.13
2022-10-27T09:01:23.346Z,92996.16
2022-10-27T09:04:09.549Z,92995.97
2022-10-27T09:06:55.416Z,92999.91
2022-10-27T09:09:41.419Z,93000.56
2022-10-27T09:12:27.316Z,92999.34
2022-10-27T09:15:13.242Z,92988.72
2022-10-27T09:17:59.216Z,92990.63
2022-10-27T09:20:45.284Z,93007.06
2022-10-27T09:23:31.214Z,93010.56
2022-10-27T09:26:17.187Z,93010.34
2022-10-27T09:29:02.986Z,93007.94
2022-10-27T09:31:48.917Z,93011.66
2022-10-27T09:34:34.990Z,93007.53
2022-10-27T09:37:20.855Z,92994.97
2022-10-27T09:40:06.938Z,93001.44
2022-10-27T09:42:53.157Z,92993.09
2022-10-27T09:45:39.624Z,93008.69
2022-10-27T09:48:25.433Z,93003.28
2022-10-27T09:51:11.358Z,93010.59
2022-10-27T09:53:57.120Z,93000.69
2022-10-27T09:56:43.050Z,92993.44
2022-10-27T09:59:28.988Z,92995.69
2022-10-27T10:02:14.872Z,92999.00
2022-10-27T10:05:00.757Z,92996.88
2022-10-27T10:07:46.584Z,92998.28
2022-10-27T10:10:32.488Z,93002.59
2022-10-27T10:13:18.247Z,93001.88
2022-10-27T10:16:04.004Z,92998.78
2022-10-27T10:18:49.964Z,93000.75
2022-10-27T10:21:35.892Z,93002.66
2022-10-27T10:24:23.800Z,93006.38
2022-10-27T10:27:09.671Z,93000.72
2022-10-27T10:29:55.465Z,93006.41
2022-10-27T10:32:41.373Z,93016.28
2022-10-27T10:35:27.169Z,93014.72
2022-10-27T10:38:13.155Z,93016.94
2022-10-27T10:40:59.086Z,93011.59
2022-10-27T10:43:45.062Z,93015.78
2022-10-27T10:46:30.992Z,93012.88
2022-10-27T10:49:16.872Z,93016.28
2022-10-27T10:52:02.886Z,93012.44
2022-10-27T10:54:48.881Z,93004.47
2022-10-27T10:57:34.682Z,92988.34
2022-10-27T11:00:20.689Z,92999.41
2022-10-27T11:03:06.613Z,93004.84
2022-10-27T11:05:52.421Z,93005.81
2022-10-27T11:08:42.039Z,93001.13
2022-10-27T11:11:28.724Z,92999.59
2022-10-27T11:14:14.569Z,92993.56
2022-10-27T11:17:00.591Z,92984.50
2022-10-27T11:19:46.550Z,92977.56
2022-10-27T11:22:32.467Z,92980.78
2022-10-27T11:25:18.532Z,92984.00
2022-10-27T11:28:04.309Z,92974.34
2022-10-27T11:30:50.241Z,92982.38
2022-10-27T11:33:36.208Z,92980.03
2022-10-27T11:36:24.073Z,92981.38
2022-10-27T11:39:10.116Z,92979.19
2022-10-27T11:41:56.025Z,92974.63
2022-10-27T11:44:42.105Z,92979.63
2022-10-27T11:47:28.055Z,92979.53
2022-10-27T11:50:13.962Z,92985.03
2022-10-27T11:52:59.939Z,92985.97
2022-10-27T11:55:45.789Z,92984.16
2022-10-27T11:58:31.472Z,92985.84
2022-10-27T12:01:17.447Z,92991.88
2022-10-27T12:04:03.697Z,92990.69
2022-10-27T12:06:49.407Z,92989.28
2022-10-27T12:09:35.248Z,92980.38
2022-10-27T12:12:21.080Z,92979.91
2022-10-27T12:15:06.829Z,92977.53
2022-10-27T12:17:53.180Z,92969.91
2022-10-27T12:20:39.167Z,92973.75
2022-10-27T12:23:25.090Z,92964.78
2022-10-27T12:26:11.156Z,92963.47
2022-10-27T12:28:57.063Z,92968.91
2022-10-27T12:31:43.144Z,92969.47
2022-10-27T12:34:28.990Z,92967.59
2022-10-27T12:37:16.393Z,92958.31
2022-10-27T12:40:04.277Z,92969.03
2022-10-27T12:42:50.138Z,92957.63
2022-10-27T12:45:35.910Z,92959.25
2022-10-27T12:48:21.843Z,92958.97
2022-10-27T12:51:07.594Z,92954.13
2022-10-27T12:53:53.584Z,92957.44
2022-10-27T12:56:39.545Z,92952.91
2022-10-27T12:59:25.355Z,92953.41
2022-10-27T13:02:11.298Z,92951.72
2022-10-27T13:04:57.299Z,92949.19
2022-10-27T13:07:43.107Z,92952.13
2022-10-27T13:10:31.259Z,92940.97
2022-10-27T13:13:18.426Z,92940.66
2022-10-27T13:16:04.304Z,92947.31
2022-10-27T13:18:50.101Z,92946.00
2022-10-27T13:21:35.914Z,92936.72
2022-10-27T13:24:21.783Z,92938.50
2022-10-27T13:27:07.650Z,92940.66
2022-10-27T13:29:53.565Z,92938.66
2022-10-27T13:32:39.425Z,92942.09
2022-10-27T13:35:25.281Z,92938.72
2022-10-27T13:38:11.101Z,92934.22
2022-10-27T13:40:57.138Z,92925.66
2022-10-27T13:43:42.955Z,92927.59
2022-10-27T13:46:28.826Z,92929.16
2022-10-27T13:49:14.829Z,92936.16
2022-10-27T13:52:06.892Z,92933.41
2022-10-27T13:54:52.992Z,92932.31
2022-10-27T13:57:38.867Z,92937.22
2022-10-27T14:00:24.708Z,92936.53
2022-10-27T14:03:10.738Z,92940.72
2022-10-27T14:05:56.817Z,92936.13
2022-10-27T14:08:42.551Z,92936.88
2022-10-27T14:11:28.485Z,92939.63
2022-10-27T14:14:14.321Z,92932.53
2022-10-27T14:17:00.181Z,92925.31
2022-10-27T14:19:46.171Z,92935.97
2022-10-27T14:22:32.029Z,92932.47
2022-10-27T14:25:17.959Z,92929.91
2022-10-27T14:28:03.983Z,92945.81
2022-10-27T14:30:49.713Z,92941.53
2022-10-27T14:33:35.704Z,92942.97
2022-10-27T14:39:12.127Z,92944.31
2022-10-27T14:41:58.000Z,92952.19
2022-10-27T14:44:43.859Z,92953.06
2022-10-27T14:47:29.698Z,92946.88
2022-10-27T14:50:17.591Z,92952.91
2022-10-27T14:53:03.598Z,92954.41
2022-10-27T14:55:49.380Z,92947.41
2022-10-27T14:58:35.332Z,92947.09
2022-10-27T15:01:27.456Z,92944.72
2022-10-27T15:04:16.056Z,92947.47
2022-10-27T15:07:01.860Z,92947.69
2022-10-27T15:09:51.772Z,92950.09
2022-10-27T15:12:39.044Z,92943.75
2022-10-27T15:15:24.779Z,92954.50
2022-10-27T15:18:10.711Z,92947.44
2022-10-27T15:20:56.552Z,92948.63
2022-10-27T15:23:42.317Z,92941.88
2022-10-27T15:26:28.093Z,92943.47
2022-10-27T15:29:14.185Z,92935.09
2022-10-27T15:32:00.058Z,92929.25
2022-10-27T15:34:46.063Z,92935.41
2022-10-27T15:37:31.909Z,92929.94
2022-10-27T15:40:18.072Z,92933.44
2022-10-27T15:43:04.033Z,92935.63
2022-10-27T15:45:49.959Z,92933.97
2022-10-27T15:48:35.941Z,92933.03
2022-10-27T15:51:21.973Z,92927.31
2022-10-27T15:54:07.703Z,92923.06
2022-10-27T15:56:53.885Z,92934.19
2022-10-27T15:59:39.693Z,92936.16
2022-10-27T16:02:25.554Z,92938.03
2022-10-27T16:05:11.440Z,92944.28
2022-10-27T16:07:57.401Z,92944.44
2022-10-27T16:10:43.403Z,92946.16
2022-10-27T16:13:29.409Z,92946.53
2022-10-27T16:16:15.281Z,92949.41
2022-10-27T16:19:01.326Z,92955.56
2022-10-27T16:21:47.146Z,92961.53
2022-10-27T16:24:33.078Z,92959.00
2022-10-27T16:27:18.985Z,92958.47
2022-10-27T16:30:04.882Z,92956.28
2022-10-27T16:32:51.164Z,92946.25
2022-10-27T16:35:37.297Z,92950.81
2022-10-27T16:38:23.107Z,92955.06
2022-10-27T16:41:09.174Z,92946.47
2022-10-27T16:43:55.051Z,92952.16
2022-10-27T16:46:40.922Z,92954.31
2022-10-27T16:49:26.930Z,92951.72
2022-10-27T16:52:12.769Z,92961.53
2022-10-27T16:54:58.618Z,92961.03
2022-10-27T16:57:47.241Z,92958.16
2022-10-27T17:00:35.675Z,92961.16
2022-10-27T17:03:21.618Z,92959.69
2022-10-27T17:06:07.598Z,92957.53
2022-10-27T17:08:53.368Z,92951.94
2022-10-27T17:11:39.281Z,92958.81
2022-10-27T17:14:25.169Z,92953.72
2022-10-27T17:17:11.032Z,92956.81
2022-10-27T17:19:56.943Z,92956.63
2022-10-27T17:22:42.883Z,92959.03
2022-10-27T17:25:31.392Z,92954.06
2022-10-27T17:28:17.858Z,92958.13
2022-10-27T17:31:03.756Z,92957.16
2022-10-27T17:33:49.808Z,92951.16
2022-10-27T17:36:35.631Z,92950.16
2022-10-27T17:39:21.371Z,92951.88
2022-10-27T17:42:07.279Z,92952.44
2022-10-27T17:44:53.122Z,92945.63
2022-10-27T17:47:39.042Z,92945.44
2022-10-27T17:50:24.890Z,92952.44
2022-10-27T17:53:10.725Z,92949.56
2022-10-27T17:55:56.709Z,92952.13
2022-10-27T17:58:42.531Z,92950.59
2022-10-27T18:01:28.663Z,92958.53
2022-10-27T18:04:14.805Z,92959.59
2022-10-27T18:07:00.601Z,92964.66
2022-10-27T18:09:46.540Z,92973.81
2022-10-27T18:12:32.437Z,92966.78
2022-10-27T18:15:35.046Z,92966.31
2022-10-27T18:18:22.255Z,92973.22
2022-10-27T18:21:08.333Z,92979.03
2022-10-27T18:23:54.162Z,92986.47
2022-10-27T18:26:40.073Z,92968.91
2022-10-27T18:29:26.701Z,92976.34
2022-10-27T18:32:12.932Z,92987.00
2022-10-27T18:34:59.027Z,92977.16
2022-10-27T18:37:44.974Z,92981.72
2022-10-27T18:40:30.809Z,92976.34
2022-10-27T18:43:16.769Z,92979.78
2022-10-27T18:46:02.595Z,92995.50
2022-10-27T18:48:48.536Z,92979.00
2022-10-27T18:51:34.375Z,92984.34
2022-10-27T18:54:20.185Z,92980.47
2022-10-27T18:57:05.995Z,92984.34
2022-10-27T18:59:51.800Z,92990.16
2022-10-27T19:02:37.706Z,92987.13
2022-10-27T19:05:24.058Z,92981.06
2022-10-27T19:08:09.928Z,92977.84
2022-10-27T19:10:57.992Z,92985.88
2022-10-27T19:13:46.974Z,92988.19
2022-10-27T19:16:32.839Z,92985.91
2022-10-27T19:19:18.529Z,92993.06
2022-10-27T19:22:04.395Z,92988.38
2022-10-27T19:24:50.280Z,92989.69
2022-10-27T19:27:36.203Z,92990.19
2022-10-27T19:30:22.063Z,92984.19
2022-10-27T19:33:07.800Z,92982.38
2022-10-27T19:35:53.765Z,92987.31
2022-10-27T19:38:39.613Z,92990.66
2022-10-27T19:41:25.336Z,92984.97
2022-10-27T19:44:11.244Z,92985.22
2022-10-27T19:46:57.034Z,92984.69
2022-10-27T19:49:42.899Z,92981.22
2022-10-27T19:52:28.789Z,92979.88
2022-10-27T19:55:14.804Z,92975.97
2022-10-27T19:58:00.563Z,92978.28
2022-10-27T20:00:46.408Z,92977.53
2022-10-27T20:03:32.434Z,92969.53
2022-10-27T20:06:18.301Z,92973.59
2022-10-27T20:09:04.069Z,92969.69
2022-10-27T20:11:49.971Z,92984.00
2022-10-27T20:14:35.890Z,92980.97
2022-10-27T20:17:21.781Z,92981.56
2022-10-27T20:20:07.844Z,92980.38
2022-10-27T20:22:53.650Z,92976.06
2022-10-27T20:25:39.655Z,92970.16
2022-10-27T20:28:25.621Z,92964.53
2022-10-27T20:31:11.391Z,92963.16
2022-10-27T20:33:57.153Z,92966.88
2022-10-27T20:36:43.031Z,92966.88
2022-10-27T20:39:28.976Z,92965.47
2022-10-27T20:42:14.968Z,92956.34
2022-10-27T20:45:00.751Z,92958.16
2022-10-27T20:47:46.723Z,92956.22
2022-10-27T20:50:32.617Z,92955.66
2022-10-27T20:53:18.511Z,92967.34
2022-10-27T20:56:04.401Z,92969.34
2022-10-27T20:58:50.291Z,92964.53
2022-10-27T21:01:36.257Z,92969.66
2022-10-27T21:04:22.525Z,92968.75
2022-10-27T21:07:08.546Z,92975.53
2022-10-27T21:09:54.375Z,92983.41
2022-10-27T21:12:40.272Z,92985.97
2022-10-27T21:15:26.318Z,92988.19
2022-10-27T21:18:12.212Z,92986.22
2022-10-27T21:20:58.013Z,92992.25
2022-10-27T21:23:43.894Z,92990.66
2022-10-27T21:26:29.803Z,92994.53
2022-10-27T21:29:15.628Z,92990.28
2022-10-27T21:32:01.480Z,92993.59
2022-10-27T21:34:47.317Z,92986.38
2022-10-27T21:37:33.324Z,92988.28
2022-10-27T21:40:21.721Z,92988.13
2022-10-27T21:43:07.638Z,92990.94
2022-10-27T21:45:53.696Z,92986.81
2022-10-27T21:48:39.655Z,92988.19
2022-10-27T21:51:25.454Z,92992.34
2022-10-27T21:54:11.369Z,92985.06
2022-10-27T21:56:57.467Z,92985.25
2022-10-27T21:59:43.220Z,92987.19
2022-10-27T22:02:29.133Z,92982.59
2022-10-27T22:05:14.913Z,92977.59
2022-10-27T22:08:00.843Z,92978.13
2022-10-27T22:10:46.700Z,92979.56
2022-10-27T22:13:32.524Z,92973.16
2022-10-27T22:16:18.391Z,92980.59
2022-10-27T22:19:04.112Z,92975.41
2022-10-27T22:21:49.949Z,92971.66
2022-10-27T22:24:35.758Z,92976.38
2022-10-27T22:27:21.554Z,92977.78
2022-10-27T22:30:07.528Z,92978.03
2022-10-27T22:32:53.863Z,92981.66
2022-10-27T22:35:39.836Z,92983.09
2022-10-27T22:38:25.802Z,92980.75
2022-10-27T22:41:13.740Z,92988.75
2022-10-27T22:43:59.447Z,92987.59
2022-10-27T22:46:45.313Z,92985.69
2022-10-27T22:49:31.150Z,92983.09
2022-10-27T22:52:17.215Z,92975.28
2022-10-27T22:55:03.202Z,92984.63
2022-10-27T22:57:49.093Z,92986.16
2022-10-27T23:00:36.896Z,92987.06
2022-10-27T23:03:22.813Z,92988.97
2022-10-27T23:06:08.635Z,92985.38
2022-10-27T23:08:54.517Z,92982.66
2022-10-27T23:11:40.284Z,92983.38
2022-10-27T23:14:26.069Z,92978.59
2022-10-27T23:17:12.109Z,92979.63
2022-10-27T23:19:57.929Z,92983.69
2022-10-27T23:22:43.874Z,92990.69
2022-10-27T23:25:31.819Z,92991.44
2022-10-27T23:28:20.060Z,92997.31
2022-10-27T23:31:05.792Z,93002.97
2022-10-27T23:33:51.602Z,92998.28
2022-10-27T23:36:37.359Z,92997.88
2022-10-27T23:39:23.314Z,92988.41
2022-10-27T23:42:11.102Z,92986.72
2022-10-27T23:44:56.918Z,92994.88
2022-10-27T23:47:42.827Z,92990.22
2022-10-27T23:50:28.610Z,92984.63
2022-10-27T23:53:14.517Z,92975.13
2022-10-27T23:56:00.410Z,92977.13
2022-10-27T23:58:46.277Z,92968.41
